createdAt,value
2022-11-10T00:00:58.189Z,0.00
2022-11-10T00:01:58.177Z,0.00
2022-11-10T00:02:58.148Z,0.00
2022-11-10T00:03:58.249Z,0.00
2022-11-10T00:04:58.158Z,0.00
2022-11-10T00:05:58.120Z,0.00
2022-11-10T00:06:58.149Z,0.00
2022-11-10T00:07:58.144Z,0.00
2022-11-10T00:08:58.129Z,0.00
2022-11-10T00:09:58.061Z,0.00
2022-11-10T00:10:58.090Z,0.00
2022-11-10T00:11:58.039Z,0.00
2022-11-10T00:12:58.045Z,0.00
2022-11-10T00:13:58.055Z,0.00
2022-11-10T00:14:58.056Z,0.00
2022-11-10T00:15:58.018Z,0.00
2022-11-10T00:16:58.012Z,0.00
2022-11-10T00:17:58.015Z,0.00
2022-11-10T00:18:57.979Z,0.00
2022-11-10T00:19:57.956Z,0.00
2022-11-10T00:20:58.014Z,0.00
2022-11-10T00:21:57.963Z,0.00
2022-11-10T00:22:57.914Z,0.00
2022-11-10T00:23:57.934Z,0.00
2022-11-10T00:24:57.932Z,0.00
2022-11-10T00:25:57.911Z,0.00
2022-11-10T00:26:57.938Z,0.00
2022-11-10T00:27:57.878Z,0.00
2022-11-10T00:28:57.886Z,0.00
2022-11-10T00:29:57.845Z,0.00
2022-11-10T00:30:57.849Z,0.00
2022-11-10T00:31:57.867Z,0.00
2022-11-10T00:32:57.806Z,0.00
2022-11-10T00:33:57.810Z,0.00
2022-11-10T00:34:57.777Z,0.00
2022-11-10T00:35:57.797Z,0.00
2022-11-10T00:36:57.787Z,0.00
2022-11-10T00:37:57.781Z,0.00
2022-11-10T00:38:57.768Z,0.00
2022-11-10T00:39:57.734Z,0.00
2022-11-10T00:40:57.728Z,0.00
2022-11-10T00:41:57.723Z,0.00
2022-11-10T00:42:57.702Z,0.00
2022-11-10T00:43:57.713Z,0.00
2022-11-10T00:44:57.723Z,0.00
2022-11-10T00:45:57.682Z,0.00
2022-11-10T00:46:57.709Z,0.00
2022-11-10T00:47:57.644Z,0.00
2022-11-10T00:48:57.621Z,0.00
2022-11-10T00:49:57.654Z,0.00
2022-11-10T00:50:57.621Z,0.00
2022-11-10T00:51:57.650Z,0.00
2022-11-10T00:52:57.626Z,0.00
2022-11-10T00:53:57.564Z,0.00
2022-11-10T00:54:57.584Z,0.00
2022-11-10T00:55:57.556Z,0.00
2022-11-10T00:56:57.553Z,0.00
2022-11-10T00:57:57.562Z,0.00
2022-11-10T00:58:57.503Z,0.00
2022-11-10T00:59:57.494Z,0.00
2022-11-10T01:00:57.582Z,0.00
2022-11-10T01:01:57.513Z,0.00
2022-11-10T01:02:57.487Z,0.00
2022-11-10T01:03:57.469Z,0.00
2022-11-10T01:04:57.468Z,0.00
2022-11-10T01:05:57.439Z,0.00
2022-11-10T01:06:57.530Z,0.00
2022-11-10T01:07:57.437Z,0.00
2022-11-10T01:08:57.397Z,0.00
2022-11-10T01:09:57.395Z,0.00
2022-11-10T01:10:57.368Z,0.00
2022-11-10T01:11:57.400Z,0.00
2022-11-10T01:12:58.050Z,0.00
2022-11-10T01:13:57.378Z,0.00
2022-11-10T01:14:57.338Z,0.00
2022-11-10T01:15:57.342Z,0.00
2022-11-10T01:16:57.308Z,0.00
2022-11-10T01:17:57.290Z,0.00
2022-11-10T01:18:57.330Z,0.00
2022-11-10T01:19:57.300Z,0.00
2022-11-10T01:20:57.276Z,0.00
2022-11-10T01:21:57.292Z,0.00
2022-11-10T01:22:57.253Z,0.00
2022-11-10T01:23:57.231Z,0.00
2022-11-10T01:24:57.234Z,0.00
2022-11-10T01:25:57.254Z,0.00
2022-11-10T01:26:57.201Z,0.00
2022-11-10T01:27:57.203Z,0.00
2022-11-10T01:28:57.190Z,0.00
2022-11-10T01:29:57.153Z,0.00
2022-11-10T01:30:57.152Z,0.00
2022-11-10T01:31:57.172Z,0.00
2022-11-10T01:32:57.166Z,0.00
2022-11-10T01:33:57.147Z,0.00
2022-11-10T01:34:57.118Z,0.00
2022-11-10T01:35:57.137Z,0.00
2022-11-10T01:36:57.084Z,0.00
2022-11-10T01:37:57.118Z,0.00
2022-11-10T01:38:57.063Z,0.00
2022-11-10T01:39:57.152Z,0.00
2022-11-10T01:40:57.080Z,0.00
2022-11-10T01:41:57.037Z,0.00
2022-11-10T01:42:57.023Z,0.00
2022-11-10T01:43:57.043Z,0.00
2022-11-10T01:44:56.997Z,0.00
2022-11-10T01:45:56.988Z,0.00
2022-11-10T01:46:56.991Z,0.00
2022-11-10T01:47:57.077Z,0.00
2022-11-10T01:48:56.959Z,0.00
2022-11-10T01:49:56.960Z,0.00
2022-11-10T01:50:56.989Z,0.00
2022-11-10T01:51:56.914Z,0.00
2022-11-10T01:52:56.899Z,0.00
2022-11-10T01:53:56.961Z,0.00
2022-11-10T01:54:56.890Z,0.00
2022-11-10T01:55:56.883Z,0.00
2022-11-10T01:56:56.921Z,0.00
2022-11-10T01:57:56.884Z,0.00
2022-11-10T01:58:56.844Z,0.00
2022-11-10T01:59:56.852Z,0.00
2022-11-10T02:00:56.908Z,0.00
2022-11-10T02:01:56.814Z,0.00
2022-11-10T02:02:56.790Z,0.00
2022-11-10T02:03:56.804Z,0.00
2022-11-10T02:04:56.835Z,0.00
2022-11-10T02:05:56.776Z,0.00
2022-11-10T02:06:56.794Z,0.00
2022-11-10T02:07:56.732Z,0.00
2022-11-10T02:08:56.758Z,0.00
2022-11-10T02:09:56.734Z,0.00
2022-11-10T02:10:56.693Z,0.00
2022-11-10T02:11:56.684Z,0.00
2022-11-10T02:12:56.710Z,0.00
2022-11-10T02:13:56.684Z,0.00
2022-11-10T02:14:56.657Z,0.00
2022-11-10T02:15:56.635Z,0.00
2022-11-10T02:16:56.634Z,0.00
2022-11-10T02:17:56.630Z,0.00
2022-11-10T02:18:56.668Z,0.00
2022-11-10T02:19:56.637Z,0.00
2022-11-10T02:20:56.576Z,0.00
2022-11-10T02:21:56.597Z,0.00
2022-11-10T02:22:56.567Z,0.00
2022-11-10T02:23:56.546Z,0.00
2022-11-10T02:24:56.640Z,0.00
2022-11-10T02:25:56.536Z,0.00
2022-11-10T02:26:56.517Z,0.00
2022-11-10T02:27:56.522Z,0.00
2022-11-10T02:28:56.493Z,0.00
2022-11-10T02:29:56.476Z,0.00
2022-11-10T02:30:56.562Z,0.00
2022-11-10T02:31:56.485Z,0.00
2022-11-10T02:32:56.473Z,0.00
2022-11-10T02:33:56.428Z,0.00
2022-11-10T02:34:56.423Z,0.00
2022-11-10T02:35:56.483Z,0.00
2022-11-10T02:36:56.412Z,0.00
2022-11-10T02:37:56.379Z,0.00
2022-11-10T02:38:56.393Z,0.00
2022-11-10T02:39:56.393Z,0.00
2022-11-10T02:40:56.359Z,0.00
2022-11-10T02:41:56.368Z,0.00
2022-11-10T02:42:56.334Z,0.00
2022-11-10T02:43:56.343Z,0.00
2022-11-10T02:44:56.308Z,0.00
2022-11-10T02:45:56.292Z,0.00
2022-11-10T02:46:56.303Z,0.00
2022-11-10T02:47:56.309Z,0.00
2022-11-10T02:48:56.316Z,0.00
2022-11-10T02:49:56.376Z,0.00
2022-11-10T02:50:56.266Z,0.00
2022-11-10T02:51:56.231Z,0.00
2022-11-10T02:52:56.223Z,0.00
2022-11-10T02:53:56.211Z,0.00
2022-11-10T02:54:56.207Z,0.00
2022-11-10T02:55:56.247Z,0.00
2022-11-10T02:56:56.205Z,0.00
2022-11-10T02:57:56.178Z,0.00
2022-11-10T02:58:56.170Z,0.00
2022-11-10T02:59:56.168Z,0.00
2022-11-10T03:00:56.236Z,0.00
2022-11-10T03:01:56.145Z,0.00
2022-11-10T03:02:56.106Z,0.00
2022-11-10T03:03:56.096Z,0.00
2022-11-10T03:04:56.087Z,0.00
2022-11-10T03:05:56.113Z,0.00
2022-11-10T03:06:56.116Z,0.00
2022-11-10T03:07:56.037Z,0.00
2022-11-10T03:08:56.041Z,0.00
2022-11-10T03:09:56.121Z,0.00
2022-11-10T03:10:56.060Z,0.00
2022-11-10T03:11:55.998Z,0.00
2022-11-10T03:12:55.999Z,0.00
2022-11-10T03:14:01.824Z,0.00
2022-11-10T03:14:56.999Z,0.00
2022-11-10T03:15:56.000Z,0.00
2022-11-10T03:16:55.952Z,0.00
2022-11-10T03:17:55.973Z,0.00
2022-11-10T03:18:55.930Z,0.00
2022-11-10T03:19:55.911Z,0.00
2022-11-10T03:20:55.939Z,0.00
2022-11-10T03:21:55.894Z,0.00
2022-11-10T03:22:55.883Z,0.00
2022-11-10T03:23:55.860Z,0.00
2022-11-10T03:24:55.850Z,0.00
2022-11-10T03:25:55.913Z,0.00
2022-11-10T03:26:55.821Z,0.00
2022-11-10T03:27:55.862Z,0.00
2022-11-10T03:28:55.877Z,0.00
2022-11-10T03:29:55.826Z,0.00
2022-11-10T03:30:55.809Z,0.00
2022-11-10T03:31:55.792Z,0.00
2022-11-10T03:32:55.753Z,0.00
2022-11-10T03:33:55.743Z,0.00
2022-11-10T03:34:55.743Z,0.00
2022-11-10T03:35:55.746Z,0.00
2022-11-10T03:36:55.766Z,0.00
2022-11-10T03:37:55.705Z,0.00
2022-11-10T03:38:55.723Z,0.00
2022-11-10T03:39:55.703Z,0.00
2022-11-10T03:41:56.699Z,0.00
2022-11-10T03:42:55.653Z,0.00
2022-11-10T03:43:55.627Z,0.00
2022-11-10T03:44:55.630Z,0.00
2022-11-10T03:45:55.621Z,0.00
2022-11-10T03:46:55.691Z,0.00
2022-11-10T03:47:55.610Z,0.00
2022-11-10T03:48:55.601Z,0.00
2022-11-10T03:49:55.578Z,0.00
2022-11-10T03:50:55.569Z,0.00
2022-11-10T03:51:55.557Z,0.00
2022-11-10T03:52:55.588Z,0.00
2022-11-10T03:53:55.542Z,0.00
2022-11-10T03:54:59.262Z,0.00
2022-11-10T03:55:56.522Z,0.00
2022-11-10T03:56:55.500Z,0.00
2022-11-10T03:57:55.511Z,0.00
2022-11-10T03:58:55.511Z,0.00
2022-11-10T03:59:55.471Z,0.00
2022-11-10T04:00:55.439Z,0.00
2022-11-10T04:01:55.492Z,0.00
2022-11-10T04:02:55.420Z,0.00
2022-11-10T04:03:55.415Z,0.00
2022-11-10T04:04:55.441Z,0.00
2022-11-10T04:05:55.380Z,0.00
2022-11-10T04:06:55.395Z,0.00
2022-11-10T04:07:55.385Z,0.00
2022-11-10T04:08:55.377Z,0.00
2022-11-10T04:09:55.393Z,0.00
2022-11-10T04:10:55.347Z,0.00
2022-11-10T04:11:55.332Z,0.00
2022-11-10T04:12:55.342Z,0.00
2022-11-10T04:13:55.323Z,0.00
2022-11-10T04:14:55.307Z,0.00
2022-11-10T04:15:55.320Z,0.00
2022-11-10T04:16:55.284Z,0.00
2022-11-10T04:17:55.257Z,0.00
2022-11-10T04:18:55.255Z,0.00
2022-11-10T04:19:55.225Z,0.00
2022-11-10T04:20:55.270Z,0.00
2022-11-10T04:21:55.299Z,0.00
2022-11-10T04:22:55.205Z,0.00
2022-11-10T04:23:55.202Z,0.00
2022-11-10T04:24:55.172Z,0.00
2022-11-10T04:25:55.169Z,0.00
2022-11-10T04:26:55.183Z,0.00
2022-11-10T04:27:55.151Z,0.00
2022-11-10T04:28:55.179Z,0.00
2022-11-10T04:29:55.120Z,0.00
2022-11-10T04:30:55.099Z,0.00
2022-11-10T04:31:55.120Z,0.00
2022-11-10T04:32:55.097Z,0.00
2022-11-10T04:33:55.102Z,0.00
2022-11-10T04:34:55.112Z,0.00
2022-11-10T04:35:55.063Z,0.00
2022-11-10T04:36:55.027Z,0.00
2022-11-10T04:37:55.048Z,0.00
2022-11-10T04:38:55.018Z,0.00
2022-11-10T04:39:55.034Z,0.00
2022-11-10T04:40:54.993Z,0.00
2022-11-10T04:41:59.760Z,0.00
2022-11-10T04:42:55.993Z,0.00
2022-11-10T04:43:54.960Z,0.00
2022-11-10T04:44:54.954Z,0.00
2022-11-10T04:45:54.964Z,0.00
2022-11-10T04:46:54.925Z,0.00
2022-11-10T04:47:54.913Z,0.00
2022-11-10T04:48:54.912Z,0.00
2022-11-10T04:49:54.896Z,0.00
2022-11-10T04:50:54.881Z,0.00
2022-11-10T04:51:55.002Z,0.00
2022-11-10T04:52:54.878Z,0.00
2022-11-10T04:53:54.845Z,0.00
2022-11-10T04:54:54.856Z,0.00
2022-11-10T04:55:54.822Z,0.00
2022-11-10T04:56:54.858Z,0.00
2022-11-10T04:57:54.785Z,0.00
2022-11-10T04:58:54.788Z,0.00
2022-11-10T04:59:54.809Z,0.00
2022-11-10T05:00:54.855Z,0.00
2022-11-10T05:01:54.790Z,0.00
2022-11-10T05:02:54.725Z,0.00
2022-11-10T05:03:54.739Z,0.00
2022-11-10T05:04:54.738Z,0.00
2022-11-10T05:05:54.695Z,0.00
2022-11-10T05:06:54.751Z,0.00
2022-11-10T05:07:54.731Z,0.00
2022-11-10T05:08:54.669Z,0.00
2022-11-10T05:09:54.666Z,0.00
2022-11-10T05:10:54.648Z,0.00
2022-11-10T05:11:54.661Z,0.00
2022-11-10T05:12:54.633Z,0.00
2022-11-10T05:13:54.628Z,0.00
2022-11-10T05:14:54.633Z,0.00
2022-11-10T05:15:54.602Z,0.00
2022-11-10T05:16:54.590Z,0.00
2022-11-10T05:17:54.588Z,0.00
2022-11-10T05:18:54.599Z,0.00
2022-11-10T05:19:54.559Z,0.00
2022-11-10T05:20:54.532Z,0.00
2022-11-10T05:21:54.530Z,0.00
2022-11-10T05:22:54.508Z,0.00
2022-11-10T05:23:54.503Z,0.00
2022-11-10T05:24:54.543Z,0.00
2022-11-10T05:25:54.480Z,0.00
2022-11-10T05:26:54.472Z,0.00
2022-11-10T05:27:54.465Z,0.00
2022-11-10T05:28:54.442Z,0.00
2022-11-10T05:29:54.466Z,0.00
2022-11-10T05:30:54.442Z,0.00
2022-11-10T05:31:54.392Z,0.00
2022-11-10T05:32:54.392Z,0.00
2022-11-10T05:33:54.374Z,0.00
2022-11-10T05:34:54.403Z,0.00
2022-11-10T05:35:54.384Z,0.00
2022-11-10T05:36:54.397Z,0.00
2022-11-10T05:37:54.345Z,0.00
2022-11-10T05:38:54.337Z,0.00
2022-11-10T05:39:54.337Z,0.00
2022-11-10T05:40:54.326Z,0.00
2022-11-10T05:41:54.295Z,0.00
2022-11-10T05:42:54.317Z,0.00
2022-11-10T05:43:54.255Z,0.00
2022-11-10T05:44:54.268Z,0.00
2022-11-10T05:45:54.278Z,0.00
2022-11-10T05:46:54.249Z,4.00
2022-11-10T05:47:54.243Z,4.00
2022-11-10T05:48:54.248Z,4.00
2022-11-10T05:49:54.216Z,0.00
2022-11-10T05:50:54.239Z,4.00
2022-11-10T05:51:54.180Z,4.00
2022-11-10T05:52:54.203Z,8.00
2022-11-10T05:53:54.163Z,4.00
2022-11-10T05:54:54.161Z,8.00
2022-11-10T05:55:54.138Z,8.00
2022-11-10T05:56:54.151Z,12.00
2022-11-10T05:57:54.136Z,12.00
2022-11-10T05:58:54.089Z,12.00
2022-11-10T05:59:54.127Z,16.00
2022-11-10T06:00:54.069Z,20.00
2022-11-10T06:01:54.059Z,24.00
2022-11-10T06:02:54.079Z,28.00
2022-11-10T06:03:54.049Z,32.00
2022-11-10T06:04:54.019Z,36.00
2022-11-10T06:05:54.034Z,40.00
2022-11-10T06:06:54.044Z,48.00
2022-11-10T06:07:54.014Z,56.00
2022-11-10T06:08:53.979Z,64.00
2022-11-10T06:09:53.969Z,72.00
2022-11-10T06:10:53.990Z,80.00
2022-11-10T06:11:53.955Z,92.00
2022-11-10T06:12:53.940Z,104.00
2022-11-10T06:13:53.960Z,116.00
2022-11-10T06:14:53.932Z,132.00
2022-11-10T06:15:53.941Z,144.00
2022-11-10T06:16:53.883Z,160.00
2022-11-10T06:17:53.895Z,176.00
2022-11-10T06:18:53.886Z,196.00
2022-11-10T06:19:53.906Z,212.00
2022-11-10T06:20:53.886Z,236.00
2022-11-10T06:22:00.445Z,256.00
2022-11-10T06:22:54.828Z,280.00
2022-11-10T06:23:53.824Z,304.00
2022-11-10T06:24:53.815Z,328.00
2022-11-10T06:25:53.858Z,352.00
2022-11-10T06:26:53.775Z,384.00
2022-11-10T06:27:53.755Z,412.00
2022-11-10T06:28:53.817Z,448.00
2022-11-10T06:29:53.750Z,480.00
2022-11-10T06:30:53.783Z,516.00
2022-11-10T06:31:53.707Z,556.00
2022-11-10T06:32:53.715Z,596.00
2022-11-10T06:33:53.730Z,632.00
2022-11-10T06:34:59.309Z,664.00
2022-11-10T06:35:54.708Z,700.00
2022-11-10T06:36:53.700Z,732.00
2022-11-10T06:37:53.681Z,768.00
2022-11-10T06:38:53.628Z,800.00
2022-11-10T06:39:53.643Z,836.00
2022-11-10T06:40:53.608Z,868.00
2022-11-10T06:41:53.643Z,900.00
2022-11-10T06:42:53.841Z,936.00
2022-11-10T06:43:53.572Z,972.00
2022-11-10T06:44:53.592Z,1008.00
2022-11-10T06:45:53.559Z,1040.00
2022-11-10T06:46:53.568Z,1072.00
2022-11-10T06:47:53.609Z,1104.00
2022-11-10T06:48:53.552Z,1136.00
2022-11-10T06:49:53.500Z,1168.00
2022-11-10T06:50:53.527Z,1196.00
2022-11-10T06:51:53.540Z,1236.00
2022-11-10T06:52:53.485Z,1264.00
2022-11-10T06:53:53.516Z,1300.00
2022-11-10T06:54:53.511Z,1336.00
2022-11-10T06:55:53.516Z,1372.00
2022-11-10T06:56:53.431Z,1408.00
2022-11-10T06:57:53.432Z,1444.00
2022-11-10T06:58:53.430Z,1480.00
2022-11-10T06:59:53.477Z,1516.00
2022-11-10T07:00:53.403Z,1540.00
2022-11-10T07:01:53.406Z,1564.00
2022-11-10T07:02:53.369Z,1584.00
2022-11-10T07:04:18.073Z,1616.00
2022-11-10T07:04:54.352Z,1652.00
2022-11-10T07:05:53.324Z,1680.00
2022-11-10T07:06:53.397Z,1700.00
2022-11-10T07:07:53.307Z,1720.00
2022-11-10T07:08:53.305Z,1744.00
2022-11-10T07:09:53.332Z,1772.00
2022-11-10T07:10:53.300Z,1796.00
2022-11-10T07:11:53.254Z,1816.00
2022-11-10T07:12:53.269Z,1840.00
2022-11-10T07:13:53.226Z,1856.00
2022-11-10T07:14:53.217Z,1880.00
2022-11-10T07:15:53.227Z,1900.00
2022-11-10T07:16:53.222Z,1924.00
2022-11-10T07:17:53.240Z,1948.00
2022-11-10T07:18:53.196Z,1968.00
2022-11-10T07:19:53.180Z,1992.00
2022-11-10T07:20:53.181Z,2016.00
2022-11-10T07:21:53.136Z,2052.00
2022-11-10T07:22:53.147Z,2080.00
2022-11-10T07:23:53.166Z,2116.00
2022-11-10T07:24:53.111Z,2152.00
2022-11-10T07:25:53.103Z,2192.00
2022-11-10T07:26:53.100Z,2216.00
2022-11-10T07:27:53.090Z,2240.00
2022-11-10T07:28:53.060Z,2264.00
2022-11-10T07:29:53.091Z,2292.00
2022-11-10T07:30:53.029Z,2320.00
2022-11-10T07:31:53.049Z,2344.00
2022-11-10T07:32:53.249Z,2392.00
2022-11-10T07:33:54.619Z,2428.00
2022-11-10T07:34:53.006Z,2472.00
2022-11-10T07:35:53.014Z,2516.00
2022-11-10T07:36:53.254Z,2588.00
2022-11-10T07:37:52.974Z,2696.00
2022-11-10T07:38:52.951Z,2840.00
2022-11-10T07:39:52.934Z,3000.00
2022-11-10T07:40:52.942Z,3216.00
2022-11-10T07:41:53.056Z,3484.00
2022-11-10T07:42:52.924Z,3736.00
2022-11-10T07:43:52.916Z,3912.00
2022-11-10T07:44:52.881Z,4008.00
2022-11-10T07:45:52.925Z,4048.00
2022-11-10T07:46:52.887Z,4004.00
2022-11-10T07:47:52.929Z,3924.00
2022-11-10T07:48:52.844Z,3880.00
2022-11-10T07:49:52.834Z,3928.00
2022-11-10T07:50:52.828Z,4120.00
2022-11-10T07:51:52.802Z,4472.00
2022-11-10T07:52:52.796Z,4968.00
2022-11-10T07:53:52.808Z,5416.00
2022-11-10T07:54:52.778Z,5696.00
2022-11-10T07:55:52.787Z,5940.00
2022-11-10T07:56:52.755Z,6412.00
2022-11-10T07:57:52.743Z,7004.00
2022-11-10T07:58:52.765Z,7088.00
2022-11-10T07:59:55.476Z,6772.00
2022-11-10T08:00:53.773Z,6324.00
2022-11-10T08:01:52.791Z,6088.00
2022-11-10T08:02:52.682Z,5836.00
2022-11-10T08:03:52.679Z,5508.00
2022-11-10T08:04:52.702Z,5180.00
2022-11-10T08:05:52.668Z,4888.00
2022-11-10T08:06:52.686Z,4580.00
2022-11-10T08:07:52.813Z,4160.00
2022-11-10T08:08:52.616Z,4292.00
2022-11-10T08:09:52.622Z,4328.00
2022-11-10T08:10:52.653Z,4372.00
2022-11-10T08:11:52.583Z,4704.00
2022-11-10T08:12:52.559Z,5204.00
2022-11-10T08:13:52.547Z,5516.00
2022-11-10T08:14:52.530Z,6536.00
2022-11-10T08:15:52.540Z,7852.00
2022-11-10T08:16:52.654Z,8628.00
2022-11-10T08:17:52.499Z,8492.00
2022-11-10T08:18:52.546Z,8392.00
2022-11-10T08:19:52.484Z,8152.00
2022-11-10T08:20:52.460Z,7900.00
2022-11-10T08:21:52.496Z,8068.00
2022-11-10T08:22:52.465Z,8400.00
2022-11-10T08:23:52.456Z,8524.00
2022-11-10T08:24:52.426Z,8108.00
2022-11-10T08:25:52.418Z,7540.00
2022-11-10T08:26:52.426Z,7076.00
2022-11-10T08:27:52.428Z,6736.00
2022-11-10T08:28:52.401Z,6248.00
2022-11-10T08:29:52.397Z,5764.00
2022-11-10T08:30:52.363Z,5444.00
2022-11-10T08:31:52.367Z,5040.00
2022-11-10T08:32:52.354Z,4408.00
2022-11-10T08:33:52.352Z,3836.00
2022-11-10T08:34:52.317Z,3620.00
2022-11-10T08:35:52.293Z,3516.00
2022-11-10T08:36:52.298Z,3512.00
2022-11-10T08:37:52.342Z,3424.00
2022-11-10T08:38:52.306Z,3412.00
2022-11-10T08:39:52.264Z,3504.00
2022-11-10T08:40:52.250Z,3408.00
2022-11-10T08:41:52.251Z,3292.00
2022-11-10T08:42:52.251Z,3424.00
2022-11-10T08:43:52.238Z,3480.00
2022-11-10T08:44:52.292Z,3680.00
2022-11-10T08:45:52.220Z,3884.00
2022-11-10T08:46:52.192Z,4132.00
2022-11-10T08:47:52.160Z,4492.00
2022-11-10T08:48:52.183Z,4788.00
2022-11-10T08:49:52.181Z,5032.00
2022-11-10T08:50:52.155Z,5152.00
2022-11-10T08:51:52.145Z,5204.00
2022-11-10T08:52:52.109Z,5212.00
2022-11-10T08:53:52.138Z,5156.00
2022-11-10T08:54:52.121Z,5044.00
2022-11-10T08:55:52.071Z,4944.00
2022-11-10T08:56:52.091Z,4996.00
2022-11-10T08:57:52.063Z,5212.00
2022-11-10T08:58:53.485Z,5672.00
2022-11-10T08:59:52.034Z,6076.00
2022-11-10T09:00:52.095Z,6500.00
2022-11-10T09:01:52.026Z,6500.00
2022-11-10T09:02:52.015Z,6392.00
2022-11-10T09:03:52.008Z,6128.00
2022-11-10T09:04:51.997Z,5972.00
2022-11-10T09:05:56.839Z,5748.00
2022-11-10T09:06:53.335Z,5536.00
2022-11-10T09:07:51.935Z,5288.00
2022-11-10T09:08:51.951Z,4892.00
2022-11-10T09:10:05.948Z,5168.00
2022-11-10T09:10:52.956Z,5584.00
2022-11-10T09:11:52.735Z,6900.00
2022-11-10T09:12:51.876Z,9284.00
2022-11-10T09:13:51.915Z,10312.00
2022-11-10T09:14:52.162Z,11400.00
2022-11-10T09:15:51.900Z,12140.00
2022-11-10T09:16:52.752Z,12444.00
2022-11-10T09:17:51.863Z,12120.00
2022-11-10T09:18:52.058Z,11708.00
2022-11-10T09:19:51.840Z,11624.00
2022-11-10T09:20:51.819Z,11928.00
2022-11-10T09:21:51.788Z,13908.00
2022-11-10T09:22:51.789Z,18368.00
2022-11-10T09:23:51.802Z,7588.00
2022-11-10T09:24:51.773Z,7628.00
2022-11-10T09:25:51.758Z,6136.00
2022-11-10T09:26:51.804Z,5456.00
2022-11-10T09:27:51.721Z,5568.00
2022-11-10T09:28:51.727Z,7372.00
2022-11-10T09:29:51.688Z,11380.00
2022-11-10T09:30:51.680Z,10672.00
2022-11-10T09:31:51.709Z,12268.00
2022-11-10T09:32:51.706Z,16224.00
2022-11-10T09:33:51.658Z,22528.00
2022-11-10T09:34:53.067Z,17120.00
2022-11-10T09:35:51.702Z,30752.00
2022-11-10T09:36:51.654Z,28000.00
2022-11-10T09:37:51.625Z,8972.00
2022-11-10T09:38:51.627Z,25728.00
2022-11-10T09:39:51.571Z,21856.00
2022-11-10T09:40:51.584Z,15680.00
2022-11-10T09:41:51.623Z,10540.00
2022-11-10T09:42:51.598Z,20800.00
2022-11-10T09:43:51.537Z,21088.00
2022-11-10T09:44:52.554Z,21728.00
2022-11-10T09:45:51.538Z,24832.00
2022-11-10T09:46:51.522Z,26144.00
2022-11-10T09:47:57.360Z,26336.00
2022-11-10T09:48:52.487Z,26144.00
2022-11-10T09:49:51.475Z,24224.00
2022-11-10T09:50:51.482Z,24192.00
2022-11-10T09:51:51.508Z,27008.00
2022-11-10T09:52:51.477Z,26944.00
2022-11-10T09:53:51.475Z,26336.00
2022-11-10T09:54:51.471Z,27552.00
2022-11-10T09:55:51.441Z,27872.00
2022-11-10T09:56:54.421Z,27968.00
2022-11-10T09:57:51.381Z,23936.00
2022-11-10T09:58:51.359Z,24832.00
2022-11-10T09:59:51.381Z,29664.00
2022-11-10T10:00:51.377Z,30656.00
2022-11-10T10:01:51.352Z,31392.00
2022-11-10T10:02:51.323Z,31488.00
2022-11-10T10:03:51.301Z,30400.00
2022-11-10T10:04:52.223Z,21600.00
2022-11-10T10:05:51.301Z,21600.00
2022-11-10T10:07:10.153Z,30528.00
2022-11-10T10:07:52.304Z,31392.00
2022-11-10T10:08:51.284Z,11004.00
2022-11-10T10:09:51.255Z,27424.00
2022-11-10T10:10:51.269Z,15168.00
2022-11-10T10:11:51.228Z,26944.00
2022-11-10T10:12:51.236Z,33280.00
2022-11-10T10:13:51.240Z,34912.00
2022-11-10T10:14:51.232Z,34208.00
2022-11-10T10:15:51.166Z,33760.00
2022-11-10T10:16:51.180Z,31904.00
2022-11-10T10:17:51.175Z,11712.00
2022-11-10T10:18:51.147Z,11448.00
2022-11-10T10:19:51.179Z,11376.00
2022-11-10T10:20:51.142Z,10156.00
2022-11-10T10:21:51.120Z,11948.00
2022-11-10T10:22:51.122Z,11948.00
2022-11-10T10:24:51.104Z,11208.00
2022-11-10T10:25:51.310Z,10168.00
2022-11-10T10:26:51.117Z,13152.00
2022-11-10T10:27:51.082Z,15328.00
2022-11-10T10:28:51.052Z,8040.00
2022-11-10T10:29:51.032Z,10044.00
2022-11-10T10:30:51.001Z,5068.00
2022-11-10T10:31:51.325Z,19648.00
2022-11-10T10:32:51.046Z,6064.00
2022-11-10T10:33:51.015Z,19584.00
2022-11-10T10:34:50.976Z,6340.00
2022-11-10T10:35:51.013Z,17728.00
2022-11-10T10:36:51.068Z,16160.00
2022-11-10T10:37:51.004Z,20288.00
2022-11-10T10:38:50.964Z,5800.00
2022-11-10T10:39:50.920Z,6456.00
2022-11-10T10:40:50.910Z,4728.00
2022-11-10T10:41:50.940Z,18592.00
2022-11-10T10:42:50.933Z,18688.00
2022-11-10T10:43:50.877Z,5820.00
2022-11-10T10:44:50.859Z,19296.00
2022-11-10T10:45:50.908Z,19552.00
2022-11-10T10:46:50.861Z,18848.00
2022-11-10T10:47:50.855Z,19200.00
2022-11-10T10:49:08.295Z,19936.00
2022-11-10T10:49:51.857Z,19456.00
2022-11-10T10:50:50.856Z,18976.00
2022-11-10T10:51:50.812Z,19232.00
2022-11-10T10:52:50.763Z,18912.00
2022-11-10T10:53:51.011Z,18272.00
2022-11-10T10:54:50.780Z,18336.00
2022-11-10T10:55:50.722Z,18176.00
2022-11-10T10:56:50.712Z,18144.00
2022-11-10T10:57:50.848Z,18400.00
2022-11-10T10:58:50.690Z,18720.00
2022-11-10T10:59:50.703Z,13748.00
2022-11-10T11:00:50.692Z,18016.00
2022-11-10T11:01:50.733Z,18400.00
2022-11-10T11:02:50.656Z,19424.00
2022-11-10T11:03:50.673Z,19008.00
2022-11-10T11:04:50.667Z,18784.00
2022-11-10T11:05:50.637Z,18496.00
2022-11-10T11:06:50.640Z,16736.00
2022-11-10T11:07:50.604Z,5848.00
2022-11-10T11:08:50.589Z,5252.00
2022-11-10T11:09:50.600Z,17472.00
2022-11-10T11:10:50.614Z,19136.00
2022-11-10T11:11:50.609Z,19040.00
2022-11-10T11:12:50.538Z,18400.00
2022-11-10T11:13:50.581Z,18016.00
2022-11-10T11:14:50.551Z,18080.00
2022-11-10T11:15:50.518Z,18016.00
2022-11-10T11:16:50.528Z,18336.00
2022-11-10T11:17:50.534Z,18528.00
2022-11-10T11:18:50.495Z,18016.00
2022-11-10T11:19:51.794Z,18208.00
2022-11-10T11:20:50.479Z,18272.00
2022-11-10T11:21:50.440Z,18688.00
2022-11-10T11:22:50.430Z,19008.00
2022-11-10T11:23:50.452Z,19456.00
2022-11-10T11:24:50.437Z,19520.00
2022-11-10T11:25:50.420Z,19296.00
2022-11-10T11:26:50.393Z,19264.00
2022-11-10T11:27:50.391Z,19584.00
2022-11-10T11:28:50.465Z,21056.00
2022-11-10T11:29:50.388Z,21792.00
2022-11-10T11:30:50.346Z,21536.00
2022-11-10T11:31:50.342Z,21472.00
2022-11-10T11:32:50.377Z,22208.00
2022-11-10T11:33:50.339Z,22720.00
2022-11-10T11:34:50.301Z,23328.00
2022-11-10T11:35:50.294Z,23648.00
2022-11-10T11:36:50.305Z,22912.00
2022-11-10T11:37:50.289Z,20096.00
2022-11-10T11:38:50.270Z,20768.00
2022-11-10T11:39:50.266Z,19328.00
2022-11-10T11:40:50.273Z,18080.00
2022-11-10T11:41:50.217Z,17504.00
2022-11-10T11:42:50.268Z,18400.00
2022-11-10T11:43:50.189Z,20416.00
2022-11-10T11:44:50.209Z,19584.00
2022-11-10T11:45:50.187Z,23040.00
2022-11-10T11:46:50.174Z,24480.00
2022-11-10T11:47:50.241Z,23104.00
2022-11-10T11:48:50.228Z,23872.00
2022-11-10T11:49:50.149Z,27936.00
2022-11-10T11:50:50.135Z,22592.00
2022-11-10T11:51:50.124Z,30880.00
2022-11-10T11:52:50.175Z,28896.00
2022-11-10T11:53:50.112Z,29600.00
2022-11-10T11:54:50.101Z,24096.00
2022-11-10T11:55:50.096Z,18336.00
2022-11-10T11:56:50.602Z,18528.00
2022-11-10T11:57:50.074Z,20928.00
2022-11-10T11:58:50.042Z,23424.00
2022-11-10T11:59:50.050Z,27648.00
2022-11-10T12:00:50.027Z,31680.00
2022-11-10T12:01:50.005Z,31296.00
2022-11-10T12:02:53.003Z,28192.00
2022-11-10T12:03:50.018Z,25120.00
2022-11-10T12:04:50.966Z,31360.00
2022-11-10T12:05:51.232Z,27232.00
2022-11-10T12:06:49.976Z,33184.00
2022-11-10T12:07:50.001Z,33216.00
2022-11-10T12:08:50.095Z,31680.00
2022-11-10T12:09:49.951Z,20800.00
2022-11-10T12:10:50.355Z,34144.00
2022-11-10T12:11:49.929Z,34432.00
2022-11-10T12:12:49.868Z,34784.00
2022-11-10T12:13:49.873Z,36800.00
2022-11-10T12:14:51.182Z,36704.00
2022-11-10T12:15:49.863Z,35360.00
2022-11-10T12:16:50.147Z,32992.00
2022-11-10T12:17:49.829Z,19840.00
2022-11-10T12:18:50.095Z,21600.00
2022-11-10T12:19:49.854Z,26368.00
2022-11-10T12:20:49.814Z,28832.00
2022-11-10T12:21:49.807Z,28576.00
2022-11-10T12:22:49.837Z,20768.00
2022-11-10T12:23:49.776Z,23904.00
2022-11-10T12:24:49.758Z,25440.00
2022-11-10T12:25:49.749Z,25280.00
2022-11-10T12:26:49.781Z,26208.00
2022-11-10T12:27:49.730Z,26624.00
2022-11-10T12:28:49.866Z,23232.00
2022-11-10T12:29:49.697Z,19680.00
2022-11-10T12:30:49.665Z,21952.00
2022-11-10T12:31:49.694Z,26144.00
2022-11-10T12:32:49.665Z,27488.00
2022-11-10T12:33:49.657Z,27456.00
2022-11-10T12:34:49.703Z,17376.00
2022-11-10T12:35:49.640Z,25024.00
2022-11-10T12:36:49.629Z,21920.00